Aérodrome :
LOGIN :

S'inscrire | Disclaimer

   EN    FR    IT 

 










Légende :    VFR   VFR Marginal   IFR   IFR Intensif   IFR Très Intensif
Visi : 
Plafond : 
>= 8 km
>= 3000ft
5 à 8 km
1000 à 3000 ft
1500m à 5 km
500 à 1000 ft
800 à 1500m
200 à 500 ft
< 800m
< 200 ft
Symboles :   Orages  Brouillard  Fortes neiges  Fortes précipitations  Vent > 20 kt
SIGMETs :   Divers  Orages  Givrage  Turbulence  Onde Orograph.  Cendres Volcan.






- Altitude de l'aérodrome : 74 ft
- Code IATA : MRS


LFML - Marseille / Marignane

DERNIER METAR :
  • 061730Z AUTO 21008KT CAVOK 22/14 Q1008 NOSIG

METARs EXPIRÉS :
  • 061700Z AUTO 20007KT 180V250 CAVOK 23/14 Q1007 NOSIG
  • 061630Z AUTO 22010KT CAVOK 23/13 Q1007 NOSIG
  • 061600Z AUTO 24012KT CAVOK 24/14 Q1007 NOSIG
  • 061530Z AUTO 25010KT CAVOK 24/13 Q1007 NOSIG
  • 061500Z AUTO 25010KT CAVOK 24/13 Q1008 NOSIG

TAF AMD TAF LFML
Valide du 06 à 17h jusqu'au 07 à 21h UTC


061709Z 0617/0721 22010KT CAVOK TX24/0715Z TN14/0704Z
BECMG 0619/0621 VRB02KT
TEMPO 0620/0706 SHRA FEW050TCU
PROB40
TEMPO 0700/0705 VRB12KT 3000 TSRA BKN014 BKN050CB
BECMG 0707/0710 30010KT SCT020
ATIS : +33 4 42 31 15 15



MET'MAP, la Météo Aéronautique d'un coup d'oeil ! - Copyright ORBIFLY Décembre 2007 - Disclaimer

ORBIFLY MET'MAP TEAM :

Programmation & Développement : Alexandra Zaïnal
Sur une idée originale de : Baudouin d'Aumeries
Assistance à la programmation : Marc-Olivier Méhu
Soutien technique & logistique : Manuel Goepfert

Contact : metmap@orbifly.com




SOURCES & CREDITS :

   NOAA